createdAt,value
2022-10-27T00:00:31.272Z,9.3
2022-10-27T00:01:47.541Z,9.9
2022-10-27T00:03:02.870Z,11.1
2022-10-27T00:04:19.167Z,8.9
2022-10-27T00:05:35.453Z,10.2
2022-10-27T00:06:51.745Z,11.1
2022-10-27T00:08:08.033Z,11.1
2022-10-27T00:09:24.327Z,9.6
2022-10-27T00:10:40.624Z,9.7
2022-10-27T00:11:56.927Z,10.8
2022-10-27T00:13:13.214Z,9.5
2022-10-27T00:14:29.525Z,9.2
2022-10-27T00:15:45.802Z,10.3
2022-10-27T00:17:02.092Z,9.3
2022-10-27T00:18:18.387Z,9.1
2022-10-27T00:19:33.703Z,9.5
2022-10-27T00:20:50.002Z,9.8
2022-10-27T00:22:06.299Z,8.1
2022-10-27T00:23:22.578Z,9.5
2022-10-27T00:24:38.886Z,10.9
2022-10-27T00:25:55.175Z,8.3
2022-10-27T00:27:11.471Z,9.6
2022-10-27T00:28:27.779Z,10.4
2022-10-27T00:29:44.069Z,8.4
2022-10-27T00:31:00.354Z,9.5
2022-10-27T00:32:16.646Z,11.6
2022-10-27T00:33:32.951Z,9.2
2022-10-27T00:34:49.243Z,8.9
2022-10-27T00:36:04.542Z,8.9
2022-10-27T00:37:20.836Z,7.3
2022-10-27T00:38:37.140Z,9.5
2022-10-27T00:39:53.427Z,10.9
2022-10-27T00:41:09.727Z,8.7
2022-10-27T00:42:26.008Z,8.9
2022-10-27T00:43:42.309Z,9.5
2022-10-27T00:44:58.594Z,9.8
2022-10-27T00:46:14.894Z,9.3
2022-10-27T00:47:31.189Z,8.6
2022-10-27T00:48:47.483Z,8.5
2022-10-27T00:50:03.777Z,9.4
2022-10-27T00:51:20.065Z,10.2
2022-10-27T00:52:35.384Z,7.5
2022-10-27T00:53:51.681Z,8.4
2022-10-27T00:55:07.000Z,10.7
2022-10-27T00:56:24.257Z,8.2
2022-10-27T00:57:40.568Z,7.3
2022-10-27T00:58:56.869Z,10
2022-10-27T01:00:13.151Z,10.1
2022-10-27T01:01:29.448Z,8.6
2022-10-27T01:02:45.741Z,8.2
2022-10-27T01:04:02.038Z,8.3
2022-10-27T01:05:18.324Z,10.7
2022-10-27T01:06:34.623Z,7.4
2022-10-27T01:07:50.912Z,10.9
2022-10-27T01:09:06.230Z,12.5
2022-10-27T01:10:22.520Z,9.2
2022-10-27T01:11:38.822Z,8.4
2022-10-27T01:12:55.110Z,7.8
2022-10-27T01:14:11.395Z,9.5
2022-10-27T01:15:27.684Z,11
2022-10-27T01:16:43.989Z,10.6
2022-10-27T01:18:00.284Z,10.4
2022-10-27T01:19:16.579Z,9.2
2022-10-27T01:20:32.870Z,7.1
2022-10-27T01:21:49.165Z,8
2022-10-27T01:23:05.477Z,8.6
2022-10-27T01:24:21.744Z,8.5
2022-10-27T01:25:37.053Z,8.9
2022-10-27T01:26:53.356Z,8.7
2022-10-27T01:28:09.640Z,9.6
2022-10-27T01:29:25.951Z,9
2022-10-27T01:30:42.237Z,9.6
2022-10-27T01:31:58.537Z,9.6
2022-10-27T01:33:14.827Z,9.7
2022-10-27T01:34:31.120Z,7.9
2022-10-27T01:35:47.433Z,10.8
2022-10-27T01:37:03.714Z,10.6
2022-10-27T01:38:20.010Z,9.8
2022-10-27T01:39:36.287Z,12
2022-10-27T01:40:52.591Z,10.1
2022-10-27T01:42:07.899Z,9.4
2022-10-27T01:43:24.201Z,8.6
2022-10-27T01:44:40.482Z,9.3
2022-10-27T01:45:56.780Z,8.3
2022-10-27T01:47:13.086Z,9
2022-10-27T01:48:29.380Z,9.5
2022-10-27T01:49:45.658Z,8.8
2022-10-27T01:51:01.972Z,8.7
2022-10-27T01:52:18.251Z,8.7
2022-10-27T01:53:34.539Z,10.6
2022-10-27T01:54:50.837Z,9.6
2022-10-27T01:56:07.132Z,11.5
2022-10-27T01:57:23.439Z,11.3
2022-10-27T01:58:38.748Z,11.1
2022-10-27T01:59:55.046Z,8.7
2022-10-27T02:01:11.338Z,12.8
2022-10-27T02:02:27.629Z,8.8
2022-10-27T02:03:43.926Z,9.1
2022-10-27T02:05:00.218Z,6.8
2022-10-27T02:06:16.508Z,7.3
2022-10-27T02:07:32.801Z,9.8
2022-10-27T02:08:49.089Z,8.8
2022-10-27T02:10:05.403Z,8.2
2022-10-27T02:11:21.676Z,9.2
2022-10-27T02:12:37.975Z,8
2022-10-27T02:13:54.274Z,8.9
2022-10-27T02:15:09.588Z,9.5
2022-10-27T02:16:25.871Z,9.2
2022-10-27T02:17:42.191Z,7.8
2022-10-27T02:18:58.457Z,9.3
2022-10-27T02:20:14.763Z,9.2
2022-10-27T02:21:31.045Z,8.6
2022-10-27T02:22:46.378Z,9.4
2022-10-27T02:24:02.669Z,8
2022-10-27T02:25:18.950Z,7.8
2022-10-27T02:26:35.246Z,9.9
2022-10-27T02:27:51.546Z,10.3
2022-10-27T02:29:07.840Z,9
2022-10-27T02:30:24.142Z,9.1
2022-10-27T02:31:40.426Z,7.1
2022-10-27T02:32:56.729Z,7.7
2022-10-27T02:34:13.008Z,8.9
2022-10-27T02:35:29.316Z,9.4
2022-10-27T02:36:45.604Z,10.5
2022-10-27T02:38:01.905Z,8.8
2022-10-27T02:39:17.206Z,8.6
2022-10-27T02:40:33.509Z,8.3
2022-10-27T02:41:49.802Z,10.3
2022-10-27T02:43:06.000Z,7.8
2022-10-27T02:44:22.387Z,9
2022-10-27T02:45:38.689Z,7.7
2022-10-27T02:46:54.973Z,11.2
2022-10-27T02:48:11.265Z,8.5
2022-10-27T02:49:27.553Z,11.4
2022-10-27T02:50:43.858Z,8.8
2022-10-27T02:52:00.153Z,9.7
2022-10-27T02:53:16.448Z,10.4
2022-10-27T02:54:32.750Z,11.6
2022-10-27T02:55:49.030Z,11.2
2022-10-27T02:57:04.346Z,11.4
2022-10-27T02:58:20.631Z,9.9
2022-10-27T02:59:36.929Z,13.7
2022-10-27T03:00:53.233Z,12.7
2022-10-27T03:02:09.521Z,9.8
2022-10-27T03:03:25.805Z,12.3
2022-10-27T03:04:42.000Z,11.5
2022-10-27T03:05:58.406Z,10.3
2022-10-27T03:07:14.690Z,9.2
2022-10-27T03:08:30.998Z,9.3
2022-10-27T03:09:47.274Z,11.5
2022-10-27T03:11:03.581Z,9.6
2022-10-27T03:12:19.867Z,8.1
2022-10-27T03:13:35.179Z,10.6
2022-10-27T03:14:51.483Z,9.2
2022-10-27T03:16:07.773Z,10.2
2022-10-27T03:17:24.066Z,10
2022-10-27T03:18:40.357Z,10
2022-10-27T03:19:56.643Z,10
2022-10-27T03:21:12.937Z,9.2
2022-10-27T03:22:29.241Z,8
2022-10-27T03:23:45.539Z,7.5
2022-10-27T03:26:18.130Z,8
2022-10-27T03:27:34.417Z,8.9
2022-10-27T03:28:50.714Z,9.7
2022-10-27T03:30:06.023Z,8.3
2022-10-27T03:31:22.321Z,9.8
2022-10-27T03:32:38.605Z,8.6
2022-10-27T03:33:54.899Z,8.5
2022-10-27T03:35:11.192Z,8.8
2022-10-27T03:36:27.499Z,10.3
2022-10-27T03:37:43.780Z,9.7
2022-10-27T03:39:00.073Z,11.8
2022-10-27T03:40:16.382Z,12.6
2022-10-27T03:41:32.676Z,9.5
2022-10-27T03:44:05.259Z,9.9
2022-10-27T03:45:21.552Z,9.3
2022-10-27T03:46:36.865Z,9.4
2022-10-27T03:47:53.157Z,8.8
2022-10-27T03:49:09.458Z,8.5
2022-10-27T03:50:25.742Z,9.6
2022-10-27T03:51:42.035Z,8.9
2022-10-27T03:52:58.336Z,11.6
2022-10-27T03:54:14.624Z,8.5
2022-10-27T03:55:30.935Z,7.3
2022-10-27T03:56:47.227Z,10.2
2022-10-27T03:58:03.518Z,7.6
2022-10-27T03:59:19.797Z,10
2022-10-27T04:00:36.101Z,9.5
2022-10-27T04:01:52.397Z,10
2022-10-27T04:03:07.694Z,11.2
2022-10-27T04:04:23.994Z,9.9
2022-10-27T04:05:40.302Z,13.8
2022-10-27T04:06:56.601Z,10.9
2022-10-27T04:08:12.885Z,11.5
2022-10-27T04:09:29.192Z,10.8
2022-10-27T04:10:45.477Z,9.6
2022-10-27T04:12:01.758Z,11.7
2022-10-27T04:13:18.065Z,11.2
2022-10-27T04:14:34.347Z,13.1
2022-10-27T04:15:50.635Z,13.4
2022-10-27T04:17:06.933Z,12.1
2022-10-27T04:18:23.231Z,9.7
2022-10-27T04:19:38.556Z,10.1
2022-10-27T04:20:54.840Z,14.6
2022-10-27T04:22:11.152Z,9.2
2022-10-27T04:23:27.442Z,9.6
2022-10-27T04:24:43.735Z,9.9
2022-10-27T04:26:00.019Z,9.2
2022-10-27T04:27:16.309Z,11.7
2022-10-27T04:28:32.602Z,7.7
2022-10-27T04:29:48.889Z,10.6
2022-10-27T04:31:05.198Z,10
2022-10-27T04:32:21.485Z,9.8
2022-10-27T04:33:37.784Z,10.2
2022-10-27T04:34:54.091Z,9.8
2022-10-27T04:36:09.388Z,10.5
2022-10-27T04:37:25.680Z,10.4
2022-10-27T04:38:41.967Z,10.1
2022-10-27T04:39:58.267Z,11.2
2022-10-27T04:41:14.562Z,11.8
2022-10-27T04:42:30.863Z,10.1
2022-10-27T04:43:47.170Z,10.8
2022-10-27T04:45:03.434Z,9.9
2022-10-27T04:46:19.728Z,9.1
2022-10-27T04:47:36.051Z,9.3
2022-10-27T04:48:52.321Z,10.9
2022-10-27T04:50:08.624Z,9.1
2022-10-27T04:51:24.919Z,10.7
2022-10-27T04:52:40.234Z,10.7
2022-10-27T04:53:56.513Z,11.3
2022-10-27T04:55:12.829Z,11.4
2022-10-27T04:56:29.111Z,12
2022-10-27T04:57:45.422Z,14
2022-10-27T04:59:01.707Z,15.5
2022-10-27T05:00:17.995Z,17.6
2022-10-27T05:01:34.289Z,13.4
2022-10-27T05:02:50.579Z,11.8
2022-10-27T05:04:06.881Z,13.6
2022-10-27T05:05:23.170Z,11.2
2022-10-27T05:06:39.456Z,12.4
2022-10-27T05:07:55.768Z,12.2
2022-10-27T05:09:11.073Z,11.9
2022-10-27T05:10:27.372Z,10.9
2022-10-27T05:11:43.662Z,12
2022-10-27T05:12:59.945Z,11.3
2022-10-27T05:14:16.247Z,11.8
2022-10-27T05:15:32.487Z,14.7
2022-10-27T05:16:48.779Z,12
2022-10-27T05:18:05.066Z,12.9
2022-10-27T05:19:21.316Z,14.7
2022-10-27T05:20:37.571Z,11.6
2022-10-27T05:21:53.865Z,14.2
2022-10-27T05:23:10.158Z,16
2022-10-27T05:24:26.394Z,16.7
2022-10-27T05:25:41.704Z,17
2022-10-27T05:26:57.973Z,15.2
2022-10-27T05:28:14.211Z,17.3
2022-10-27T05:29:30.453Z,19.7
2022-10-27T05:30:46.678Z,19.5
2022-10-27T05:32:02.933Z,18.2
2022-10-27T05:33:19.179Z,19.3
2022-10-27T05:34:35.401Z,18.1
2022-10-27T05:35:51.662Z,20.8
2022-10-27T05:37:07.883Z,19.5
2022-10-27T05:38:24.124Z,18.9
2022-10-27T05:39:40.381Z,18.3
2022-10-27T05:40:56.622Z,19.5
2022-10-27T05:42:11.868Z,18
2022-10-27T05:43:28.107Z,19
2022-10-27T05:44:44.351Z,17.7
2022-10-27T05:46:00.591Z,16.5
2022-10-27T05:47:16.814Z,13.5
2022-10-27T05:48:33.076Z,14.9
2022-10-27T05:49:49.312Z,14
2022-10-27T05:51:05.539Z,10.7
2022-10-27T05:52:21.791Z,10.8
2022-10-27T05:53:38.017Z,12.8
2022-10-27T05:54:54.263Z,9.8
2022-10-27T05:56:10.502Z,10.9
2022-10-27T05:57:26.741Z,12.1
2022-10-27T05:58:42.012Z,12.8
2022-10-27T05:59:58.264Z,10.1
2022-10-27T06:01:14.481Z,11.5
2022-10-27T06:02:30.729Z,12.4
2022-10-27T06:03:46.960Z,11.4
2022-10-27T06:05:03.198Z,11.8
2022-10-27T06:06:19.456Z,11.7
2022-10-27T06:07:35.675Z,12.6
2022-10-27T06:08:51.934Z,12.5
2022-10-27T06:10:08.174Z,10.6
2022-10-27T06:11:24.408Z,12
2022-10-27T06:12:40.654Z,14.5
2022-10-27T06:13:56.884Z,13.6
2022-10-27T06:15:12.135Z,12.8
2022-10-27T06:16:28.392Z,12.5
2022-10-27T06:17:44.627Z,15.4
2022-10-27T06:19:00.855Z,11.7
2022-10-27T06:20:17.097Z,12.7
2022-10-27T06:21:33.351Z,12.4
2022-10-27T06:22:49.588Z,11
2022-10-27T06:24:05.831Z,9.9
2022-10-27T06:25:22.064Z,12
2022-10-27T06:26:38.308Z,11.4
2022-10-27T06:27:54.553Z,12.9
2022-10-27T06:29:10.800Z,9.4
2022-10-27T06:30:27.031Z,11.1
2022-10-27T06:31:42.289Z,11
2022-10-27T06:32:58.514Z,10.8
2022-10-27T06:34:14.758Z,11.2
2022-10-27T06:35:31.011Z,11.1
2022-10-27T06:36:47.245Z,13.5
2022-10-27T06:38:03.495Z,11.8
2022-10-27T06:39:18.767Z,13.1
2022-10-27T06:40:34.994Z,12.7
2022-10-27T06:41:51.226Z,16
2022-10-27T06:43:07.477Z,15.8
2022-10-27T06:44:23.718Z,13.9
2022-10-27T06:45:39.962Z,13.8
2022-10-27T06:46:56.195Z,11.6
2022-10-27T06:48:12.430Z,16.6
2022-10-27T06:49:28.673Z,20.4
2022-10-27T06:50:44.910Z,14.4
2022-10-27T06:52:01.139Z,16.8
2022-10-27T06:53:17.387Z,17.8
2022-10-27T06:54:33.620Z,17
2022-10-27T06:55:48.882Z,15.2
2022-10-27T06:57:05.115Z,15.5
2022-10-27T06:58:21.365Z,15.3
2022-10-27T06:59:37.613Z,16.9
2022-10-27T07:00:53.855Z,15.4
2022-10-27T07:02:10.105Z,17.6
2022-10-27T07:03:26.333Z,17.7
2022-10-27T07:04:42.581Z,15.9
2022-10-27T07:05:58.814Z,14.2
2022-10-27T07:07:15.065Z,15.4
2022-10-27T07:08:31.286Z,15.6
2022-10-27T07:09:47.517Z,13.8
2022-10-27T07:11:03.771Z,17.3
2022-10-27T07:12:19.044Z,15.5
2022-10-27T07:13:35.254Z,14.3
2022-10-27T07:14:51.508Z,13.7
2022-10-27T07:16:07.746Z,15.1
2022-10-27T07:17:23.997Z,12.7
2022-10-27T07:18:40.227Z,13.3
2022-10-27T07:19:56.482Z,13.1
2022-10-27T07:21:12.709Z,13.7
2022-10-27T07:22:28.942Z,15
2022-10-27T07:23:45.184Z,13.5
2022-10-27T07:25:01.424Z,12.9
2022-10-27T07:26:17.684Z,13.4
2022-10-27T07:27:33.912Z,13.6
2022-10-27T07:28:49.158Z,13.2
2022-10-27T07:30:05.405Z,13.5
2022-10-27T07:31:21.635Z,14.3
2022-10-27T07:32:37.894Z,16.2
2022-10-27T07:33:54.140Z,13.6
2022-10-27T07:35:10.376Z,13.4
2022-10-27T07:36:26.611Z,11.4
2022-10-27T07:37:42.861Z,14
2022-10-27T07:38:59.083Z,12.7
2022-10-27T07:40:15.333Z,11.8
2022-10-27T07:41:31.572Z,13.5
2022-10-27T07:42:47.823Z,11.7
2022-10-27T07:44:04.052Z,12.6
2022-10-27T07:45:19.296Z,15.3
2022-10-27T07:46:35.543Z,14.6
2022-10-27T07:47:51.786Z,14
2022-10-27T07:49:08.020Z,15
2022-10-27T07:50:24.253Z,14.3
2022-10-27T07:51:40.495Z,16.1
2022-10-27T07:52:56.740Z,10.9
2022-10-27T07:54:12.974Z,12.9
2022-10-27T07:55:29.225Z,10.6
2022-10-27T07:56:45.470Z,10.8
2022-10-27T07:58:01.716Z,10.9
2022-10-27T07:59:17.946Z,9
2022-10-27T08:00:34.184Z,10.7
2022-10-27T08:01:49.430Z,9.6
2022-10-27T08:03:05.681Z,10.5
2022-10-27T08:04:21.931Z,10.2
2022-10-27T08:05:38.152Z,9.9
2022-10-27T08:06:54.401Z,9.1
2022-10-27T08:08:10.628Z,10.1
2022-10-27T08:09:26.881Z,9.3
2022-10-27T08:10:43.109Z,10.1
2022-10-27T08:11:59.357Z,8
2022-10-27T08:13:15.612Z,9
2022-10-27T08:14:31.838Z,10.6
2022-10-27T08:15:48.078Z,7.2
2022-10-27T08:17:04.313Z,8.2
2022-10-27T08:18:19.581Z,7.7
2022-10-27T08:19:35.820Z,7.1
2022-10-27T08:20:52.045Z,8.6
2022-10-27T08:22:08.299Z,8.8
2022-10-27T08:23:24.525Z,7.6
2022-10-27T08:24:40.782Z,10.4
2022-10-27T08:25:57.013Z,11.3
2022-10-27T08:27:13.258Z,10.8
2022-10-27T08:28:29.495Z,8.9
2022-10-27T08:29:45.737Z,10.1
2022-10-27T08:31:01.976Z,10.6
2022-10-27T08:32:18.224Z,7.1
2022-10-27T08:33:34.473Z,8.4
2022-10-27T08:34:49.732Z,7.7
2022-10-27T08:36:05.974Z,8
2022-10-27T08:37:22.200Z,7.7
2022-10-27T08:38:38.425Z,9
2022-10-27T08:39:54.684Z,8.2
2022-10-27T08:41:10.925Z,9.3
2022-10-27T08:42:27.173Z,7.9
2022-10-27T08:43:43.409Z,9.4
2022-10-27T08:44:59.639Z,7.5
2022-10-27T08:46:15.889Z,7.7
2022-10-27T08:47:32.110Z,7.8
2022-10-27T08:48:48.355Z,8.2
2022-10-27T08:50:04.604Z,6.9
2022-10-27T08:51:19.869Z,7.9
2022-10-27T08:52:36.089Z,7
2022-10-27T08:53:52.338Z,7.3
2022-10-27T08:55:08.584Z,7.5
2022-10-27T08:56:24.832Z,8
2022-10-27T08:57:41.077Z,7.7
2022-10-27T08:58:57.297Z,8.8
2022-10-27T09:00:13.551Z,7.7
2022-10-27T09:01:29.773Z,7
2022-10-27T09:02:46.000Z,7.1
2022-10-27T09:04:02.259Z,8.8
2022-10-27T09:05:18.527Z,6.8
2022-10-27T09:06:34.745Z,6.3
2022-10-27T09:07:49.994Z,6.2
2022-10-27T09:09:06.241Z,8
2022-10-27T09:10:22.481Z,7.2
2022-10-27T09:11:38.733Z,9.3
2022-10-27T09:12:54.972Z,6.1
2022-10-27T09:14:11.209Z,7.1
2022-10-27T09:15:27.452Z,6.8
2022-10-27T09:16:43.699Z,6.7
2022-10-27T09:17:59.946Z,7.3
2022-10-27T09:19:16.184Z,7.4
2022-10-27T09:20:32.408Z,7.3
2022-10-27T09:21:48.673Z,8.2
2022-10-27T09:23:04.898Z,7.7
2022-10-27T09:24:20.150Z,7.1
2022-10-27T09:25:36.387Z,6.8
2022-10-27T09:26:52.636Z,7.1
2022-10-27T09:28:08.878Z,7.2
2022-10-27T09:29:25.125Z,6.6
2022-10-27T09:30:41.358Z,6.4
2022-10-27T09:31:57.616Z,7.8
2022-10-27T09:33:13.851Z,7.4
2022-10-27T09:34:30.093Z,7.6
2022-10-27T09:35:46.347Z,7
2022-10-27T09:37:02.562Z,6.4
2022-10-27T09:38:18.802Z,7.7
2022-10-27T09:39:35.043Z,8.3
2022-10-27T09:40:50.313Z,7.5
2022-10-27T09:42:06.562Z,6.9
2022-10-27T09:43:22.804Z,9
2022-10-27T09:44:39.038Z,7
2022-10-27T09:45:55.276Z,6.6
2022-10-27T09:47:11.523Z,9.1
2022-10-27T09:48:27.751Z,8
2022-10-27T09:49:43.998Z,9.4
2022-10-27T09:51:00.249Z,8.1
2022-10-27T09:52:16.485Z,7.9
2022-10-27T09:53:32.725Z,7
2022-10-27T09:54:48.960Z,7.1
2022-10-27T09:56:05.205Z,7.8
2022-10-27T09:57:20.450Z,8.5
2022-10-27T09:58:36.713Z,6.9
2022-10-27T09:59:52.943Z,7.3
2022-10-27T10:01:09.182Z,6.8
2022-10-27T10:02:25.420Z,7.9
2022-10-27T10:03:41.671Z,7.9
2022-10-27T10:04:57.913Z,7.4
2022-10-27T10:06:14.147Z,7.1
2022-10-27T10:07:30.398Z,6.9
2022-10-27T10:08:46.632Z,8.9
2022-10-27T10:10:02.872Z,7.3
2022-10-27T10:11:19.113Z,6.3
2022-10-27T10:12:35.363Z,6.8
2022-10-27T10:13:50.604Z,6.1
2022-10-27T10:15:06.853Z,7
2022-10-27T10:16:23.088Z,5.6
2022-10-27T10:17:39.000Z,5.9
2022-10-27T10:18:55.588Z,7.5
2022-10-27T10:20:11.833Z,7.2
2022-10-27T10:21:28.080Z,9.2
2022-10-27T10:22:44.309Z,6.4
2022-10-27T10:24:00.538Z,6.9
2022-10-27T10:25:16.792Z,8.2
2022-10-27T10:26:33.031Z,5.4
2022-10-27T10:27:49.287Z,6.8
2022-10-27T10:29:05.507Z,6.5
2022-10-27T10:30:20.761Z,6.2
2022-10-27T10:31:37.002Z,9.3
2022-10-27T10:32:53.261Z,6.6
2022-10-27T10:34:09.495Z,5.8
2022-10-27T10:35:25.737Z,7.1
2022-10-27T10:36:41.965Z,6.3
2022-10-27T10:37:58.227Z,7.2
2022-10-27T10:39:14.465Z,7.9
2022-10-27T10:40:30.709Z,6.4
2022-10-27T10:41:46.938Z,8.9
2022-10-27T10:43:03.192Z,6.6
2022-10-27T10:44:19.431Z,6.1
2022-10-27T10:45:35.661Z,6.6
2022-10-27T10:46:50.929Z,6.9
2022-10-27T10:48:07.164Z,8.6
2022-10-27T10:49:23.398Z,5.3
2022-10-27T10:50:39.640Z,6
2022-10-27T10:51:55.881Z,8
2022-10-27T10:53:12.124Z,6.8
2022-10-27T10:54:27.402Z,6.4
2022-10-27T10:55:43.623Z,6.4
2022-10-27T10:56:59.880Z,5.9
2022-10-27T10:58:16.107Z,5.9
2022-10-27T10:59:32.356Z,7.2
2022-10-27T11:00:48.599Z,5.5
2022-10-27T11:02:04.848Z,6.9
2022-10-27T11:03:21.077Z,7.1
2022-10-27T11:04:37.332Z,5.9
2022-10-27T11:05:53.567Z,7.6
2022-10-27T11:07:09.814Z,6.6
2022-10-27T11:08:26.037Z,5.8
2022-10-27T11:09:42.292Z,5.7
2022-10-27T11:10:57.537Z,7.8
2022-10-27T11:12:13.775Z,6.6
2022-10-27T11:13:30.028Z,4.1
2022-10-27T11:14:46.272Z,7.2
2022-10-27T11:16:02.497Z,6.5
2022-10-27T11:17:18.740Z,6.4
2022-10-27T11:18:34.982Z,6.2
2022-10-27T11:19:51.218Z,8.6
2022-10-27T11:21:07.472Z,8
2022-10-27T11:22:23.705Z,5.6
2022-10-27T11:23:39.948Z,6.1
2022-10-27T11:24:56.188Z,8
2022-10-27T11:26:12.427Z,7.3
2022-10-27T11:27:27.695Z,6.9
2022-10-27T11:28:43.922Z,7.8
2022-10-27T11:30:00.169Z,7.5
2022-10-27T11:31:16.399Z,5.9
2022-10-27T11:32:32.657Z,7.2
2022-10-27T11:33:48.896Z,7.8
2022-10-27T11:35:05.139Z,7.4
2022-10-27T11:36:21.378Z,7.1
2022-10-27T11:37:37.604Z,6.3
2022-10-27T11:38:53.850Z,6
2022-10-27T11:40:10.102Z,7.2
2022-10-27T11:41:26.337Z,5.7
2022-10-27T11:42:42.581Z,7.6
2022-10-27T11:43:57.824Z,6.6
2022-10-27T11:45:14.072Z,6.7
2022-10-27T11:46:30.321Z,6.4
2022-10-27T11:47:46.541Z,6.6
2022-10-27T11:49:02.785Z,5.7
2022-10-27T11:50:19.030Z,6.5
2022-10-27T11:51:35.275Z,7
2022-10-27T11:52:51.521Z,6.2
2022-10-27T11:54:07.750Z,7.6
2022-10-27T11:55:23.991Z,6
2022-10-27T11:56:40.242Z,7.3
2022-10-27T11:57:56.470Z,5.9
2022-10-27T11:59:12.711Z,6.4
2022-10-27T12:00:27.962Z,5.6
2022-10-27T12:01:44.218Z,6.8
2022-10-27T12:03:00.442Z,7.5
2022-10-27T12:04:16.700Z,7.3
2022-10-27T12:05:32.935Z,6.2
2022-10-27T12:06:49.162Z,5
2022-10-27T12:08:05.415Z,6.4
2022-10-27T12:09:21.647Z,7.9
2022-10-27T12:10:37.898Z,6.1
2022-10-27T12:11:54.128Z,7.7
2022-10-27T12:13:10.373Z,5.9
2022-10-27T12:14:26.615Z,5.5
2022-10-27T12:15:42.847Z,6.3
2022-10-27T12:16:58.106Z,8.3
2022-10-27T12:18:14.353Z,8.9
2022-10-27T12:19:30.591Z,7.5
2022-10-27T12:20:46.821Z,10
2022-10-27T12:22:03.080Z,7.6
2022-10-27T12:23:19.310Z,5.3
2022-10-27T12:24:35.560Z,6.8
2022-10-27T12:25:51.794Z,5.8
2022-10-27T12:27:08.029Z,6.5
2022-10-27T12:28:24.284Z,6.5
2022-10-27T12:29:40.510Z,5
2022-10-27T12:30:56.755Z,5.2
2022-10-27T12:32:12.994Z,4.9
2022-10-27T12:33:28.256Z,5.2
2022-10-27T12:34:44.497Z,6.7
2022-10-27T12:36:00.724Z,5
2022-10-27T12:37:16.964Z,4.7
2022-10-27T12:38:33.226Z,6.6
2022-10-27T12:39:49.454Z,5.7
2022-10-27T12:41:05.700Z,5.4
2022-10-27T12:42:21.926Z,6
2022-10-27T12:43:38.177Z,5.3
2022-10-27T12:44:54.406Z,6.5
2022-10-27T12:46:10.654Z,4.3
2022-10-27T12:47:26.891Z,5.9
2022-10-27T12:48:43.128Z,6.3
2022-10-27T12:49:58.401Z,5.6
2022-10-27T12:51:14.643Z,5.9
2022-10-27T12:52:30.865Z,3.6
2022-10-27T12:53:47.114Z,4.5
2022-10-27T12:55:03.360Z,4
2022-10-27T12:56:19.595Z,4.7
2022-10-27T12:57:35.837Z,5
2022-10-27T12:58:52.072Z,4.3
2022-10-27T13:00:08.319Z,5
2022-10-27T13:01:24.550Z,5.1
2022-10-27T13:02:40.798Z,4.9
2022-10-27T13:03:57.049Z,5.7
2022-10-27T13:05:13.271Z,3.9
2022-10-27T13:06:28.528Z,5.1
2022-10-27T13:07:44.777Z,4.5
2022-10-27T13:09:01.008Z,3.4
2022-10-27T13:10:17.267Z,4.5
2022-10-27T13:11:33.491Z,5.1
2022-10-27T13:12:49.735Z,4
2022-10-27T13:14:05.975Z,3.8
2022-10-27T13:15:22.209Z,4.4
2022-10-27T13:16:38.456Z,3.5
2022-10-27T13:17:54.699Z,4.3
2022-10-27T13:19:10.942Z,3.6
2022-10-27T13:20:27.181Z,3.6
2022-10-27T13:21:43.414Z,4.9
2022-10-27T13:22:58.670Z,3.5
2022-10-27T13:24:14.908Z,5.6
2022-10-27T13:25:31.000Z,4.8
2022-10-27T13:26:47.398Z,5.6
2022-10-27T13:28:03.637Z,3.6
2022-10-27T13:29:19.873Z,4.7
2022-10-27T13:30:36.111Z,3.2
2022-10-27T13:31:52.363Z,5.3
2022-10-27T13:33:08.606Z,3.4
2022-10-27T13:34:24.832Z,5
2022-10-27T13:35:41.088Z,5.1
2022-10-27T13:36:57.323Z,4.9
2022-10-27T13:38:13.554Z,4.4
2022-10-27T13:39:28.815Z,5.3
2022-10-27T13:40:45.048Z,3.8
2022-10-27T13:42:01.305Z,3.7
2022-10-27T13:43:17.527Z,4.6
2022-10-27T13:44:33.767Z,4.3
2022-10-27T13:45:50.007Z,3.1
2022-10-27T13:47:06.254Z,5.3
2022-10-27T13:48:22.496Z,4.5
2022-10-27T13:49:38.740Z,4.2
2022-10-27T13:50:54.970Z,3.8
2022-10-27T13:52:11.211Z,3.9
2022-10-27T13:53:27.451Z,3.7
2022-10-27T13:54:43.705Z,2.9
2022-10-27T13:55:58.950Z,3.6
2022-10-27T13:57:15.202Z,5.8
2022-10-27T13:58:31.430Z,5.3
2022-10-27T13:59:47.672Z,3.8
2022-10-27T14:01:03.915Z,3.9
2022-10-27T14:02:20.142Z,3.8
2022-10-27T14:03:36.395Z,3.2
2022-10-27T14:04:52.633Z,3.6
2022-10-27T14:06:08.881Z,4.8
2022-10-27T14:07:25.124Z,5.7
2022-10-27T14:08:41.351Z,3.7
2022-10-27T14:09:57.587Z,4.3
2022-10-27T14:11:13.832Z,3.9
2022-10-27T14:12:29.091Z,4.6
2022-10-27T14:13:45.327Z,3.9
2022-10-27T14:15:01.571Z,4.6
2022-10-27T14:16:17.815Z,4.8
2022-10-27T14:17:34.047Z,4.3
2022-10-27T14:18:50.289Z,3.3
2022-10-27T14:20:06.540Z,4.3
2022-10-27T14:21:22.778Z,4.8
2022-10-27T14:22:39.004Z,3.2
2022-10-27T14:23:55.255Z,3
2022-10-27T14:25:11.499Z,3.4
2022-10-27T14:26:27.741Z,6.4
2022-10-27T14:27:43.970Z,4.5
2022-10-27T14:28:59.233Z,3.2
2022-10-27T14:30:15.474Z,4.4
2022-10-27T14:31:31.715Z,3.9
2022-10-27T14:32:47.952Z,4.5
2022-10-27T14:34:04.193Z,3.4
2022-10-27T14:35:20.431Z,5.1
2022-10-27T14:36:36.678Z,3.2
2022-10-27T14:37:52.899Z,2.6
2022-10-27T14:39:09.145Z,4.7
2022-10-27T14:40:25.385Z,2.9
2022-10-27T14:41:41.616Z,3.2
2022-10-27T14:42:57.872Z,3.5
2022-10-27T14:44:14.106Z,4.4
2022-10-27T14:45:29.366Z,3.2
2022-10-27T14:46:45.617Z,4.5
2022-10-27T14:48:01.848Z,4.6
2022-10-27T14:49:18.082Z,6.8
2022-10-27T14:50:34.322Z,5.5
2022-10-27T14:51:50.561Z,3.9
2022-10-27T14:53:06.802Z,4.2
2022-10-27T14:54:23.031Z,3.7
2022-10-27T14:55:39.280Z,4.9
2022-10-27T14:56:55.526Z,5.3
2022-10-27T14:58:11.752Z,4.7
2022-10-27T14:59:28.019Z,4.8
2022-10-27T15:00:44.237Z,4.6
2022-10-27T15:01:59.498Z,4.3
2022-10-27T15:03:15.744Z,4
2022-10-27T15:04:31.967Z,6.9
2022-10-27T15:05:48.213Z,4.9
2022-10-27T15:07:04.451Z,5.5
2022-10-27T15:08:20.688Z,6.5
2022-10-27T15:09:35.961Z,4.3
2022-10-27T15:10:52.203Z,6.7
2022-10-27T15:12:08.437Z,3.5
2022-10-27T15:13:24.678Z,3.8
2022-10-27T15:14:40.923Z,6.5
2022-10-27T15:15:57.160Z,4.2
2022-10-27T15:17:13.397Z,4
2022-10-27T15:18:29.629Z,3.3
2022-10-27T15:19:45.883Z,6.3
2022-10-27T15:21:02.125Z,3.6
2022-10-27T15:22:18.367Z,3.6
2022-10-27T15:23:34.609Z,4.8
2022-10-27T15:24:50.837Z,4.5
2022-10-27T15:26:06.096Z,3.8
2022-10-27T15:27:22.340Z,5
2022-10-27T15:29:54.820Z,3.4
2022-10-27T15:31:11.067Z,6.2
2022-10-27T15:32:27.304Z,3.3
2022-10-27T15:33:43.544Z,5.3
2022-10-27T15:34:59.770Z,5.1
2022-10-27T15:36:16.009Z,3.5
2022-10-27T15:37:32.268Z,5.8
2022-10-27T15:38:48.504Z,3.5
2022-10-27T15:40:04.751Z,5.6
2022-10-27T15:41:20.969Z,4.5
2022-10-27T15:42:36.231Z,5
2022-10-27T15:43:52.472Z,5.6
2022-10-27T15:45:08.720Z,6
2022-10-27T15:46:24.951Z,8.2
2022-10-27T15:47:41.202Z,9.4
2022-10-27T15:48:57.432Z,8.4
2022-10-27T15:50:13.680Z,8
2022-10-27T15:51:29.910Z,6.6
2022-10-27T15:52:46.152Z,4.8
2022-10-27T15:54:02.400Z,6.8
2022-10-27T15:55:18.626Z,7.1
2022-10-27T15:56:34.885Z,6.5
2022-10-27T15:57:51.113Z,7.9
2022-10-27T15:59:06.377Z,6.1
2022-10-27T16:00:22.613Z,5.5
2022-10-27T16:01:38.856Z,9.3
2022-10-27T16:02:55.108Z,8.2
2022-10-27T16:04:11.332Z,7
2022-10-27T16:05:27.571Z,6
2022-10-27T16:06:43.820Z,6.7
2022-10-27T16:08:00.047Z,5.5
2022-10-27T16:09:16.294Z,6.6
2022-10-27T16:10:32.547Z,6.2
2022-10-27T16:11:48.780Z,6.3
2022-10-27T16:13:05.002Z,4.9
2022-10-27T16:14:21.257Z,5.8
2022-10-27T16:15:36.512Z,7
2022-10-27T16:16:52.743Z,23.1
2022-10-27T16:18:08.980Z,35.4
2022-10-27T16:19:25.231Z,36.9
2022-10-27T16:20:41.490Z,33.8
2022-10-27T16:21:57.704Z,34.2
2022-10-27T16:23:14.017Z,47.7
2022-10-27T16:24:30.289Z,64.6
2022-10-27T16:25:46.584Z,58.5
2022-10-27T16:27:02.892Z,48.8
2022-10-27T16:28:19.184Z,39.5
2022-10-27T16:29:35.481Z,27.3
2022-10-27T16:30:51.785Z,15.1
2022-10-27T16:32:07.088Z,17.5
2022-10-27T16:33:23.382Z,12.8
2022-10-27T16:34:39.655Z,10.6
2022-10-27T16:35:55.963Z,11.9
2022-10-27T16:37:12.263Z,12.9
2022-10-27T16:38:28.537Z,14.1
2022-10-27T16:39:44.844Z,12.5
2022-10-27T16:41:01.139Z,13.7
2022-10-27T16:42:17.439Z,20.7
2022-10-27T16:43:33.717Z,19.6
2022-10-27T16:44:50.024Z,17.5
2022-10-27T16:46:06.309Z,15
2022-10-27T16:47:22.602Z,13.6
2022-10-27T16:48:37.908Z,12.8
2022-10-27T16:49:54.216Z,10.4
2022-10-27T16:51:10.509Z,11.8
2022-10-27T16:52:26.793Z,12
2022-10-27T16:53:43.080Z,10.4
2022-10-27T16:54:59.390Z,9.8
2022-10-27T16:56:15.678Z,11.3
2022-10-27T16:57:31.989Z,11.3
2022-10-27T16:58:48.286Z,11.8
2022-10-27T17:00:04.553Z,9.7
2022-10-27T17:01:20.871Z,8.4
2022-10-27T17:02:37.153Z,9.5
2022-10-27T17:03:53.442Z,11
2022-10-27T17:05:08.764Z,8.3
2022-10-27T17:06:25.058Z,9.1
2022-10-27T17:07:41.331Z,8.4
2022-10-27T17:08:57.650Z,10.6
2022-10-27T17:10:13.945Z,7.8
2022-10-27T17:11:30.213Z,8
2022-10-27T17:12:46.530Z,8.3
2022-10-27T17:14:02.800Z,9.9
2022-10-27T17:15:19.094Z,8.4
2022-10-27T17:16:35.403Z,8
2022-10-27T17:17:51.693Z,7.2
2022-10-27T17:19:07.989Z,6.8
2022-10-27T17:20:24.271Z,8.5
2022-10-27T17:21:39.589Z,7.4
2022-10-27T17:22:55.892Z,8.2
2022-10-27T17:24:12.182Z,9.3
2022-10-27T17:25:28.487Z,10
2022-10-27T17:26:44.782Z,6.7
2022-10-27T17:28:01.065Z,7.1